Time;durP1;ratioP1;P1;durP2;ratioP2;P2;SDS_P1;SDS_P2;PMS_P1;PMS_P2;Temp;Humidity;BMP_temperature;BMP_pressure;BME280_temperature;BME280_humidity;BME280_pressure;Samples;Min_cycle;Max_cycle;Signal;HPM_P1;HPM_P2
2022/03/10 00:01:36;;;;;;;32.72;14.20;;;0.30;95.20;;;;;;5052465;28;20097;-69
2022/03/10 00:04:02;;;;;;;23.42;11.60;;;0.30;95.70;;;;;;5052210;28;20025;-69
2022/03/10 00:06:27;;;;;;;24.08;12.30;;;0.20;93.80;;;;;;5052494;28;20021;-70
2022/03/10 00:08:53;;;;;;;25.50;13.07;;;0.20;94.50;;;;;;5051130;28;20028;-73
2022/03/10 00:11:18;;;;;;;26.83;11.65;;;0.20;94.60;;;;;;5052302;28;20021;-72
2022/03/10 00:13:45;;;;;;;23.70;13.20;;;0.10;94.50;;;;;;5052423;28;20029;-69
2022/03/10 00:16:11;;;;;;;24.55;13.07;;;0.10;93.50;;;;;;5052091;28;20021;-73
2022/03/10 00:18:36;;;;;;;25.95;11.68;;;0.10;92.40;;;;;;5054654;28;20096;-70
2022/03/10 00:21:02;;;;;;;21.80;10.35;;;0.10;91.90;;;;;;5055630;28;20061;-73
2022/03/10 00:23:27;;;;;;;25.05;12.05;;;0.00;91.40;;;;;;5054457;28;20561;-73
2022/03/10 00:25:54;;;;;;;25.60;11.98;;;0.00;90.80;;;;;;5055567;28;20028;-72
2022/03/10 00:28:20;;;;;;;23.50;12.77;;;0.00;91.20;;;;;;5054503;28;20068;-73
2022/03/10 00:30:45;;;;;;;23.65;11.68;;;-0.10;92.30;;;;;;5055649;28;20057;-70
2022/03/10 00:33:11;;;;;;;21.35;11.98;;;-0.10;93.20;;;;;;5055385;28;20075;-72
2022/03/10 00:35:36;;;;;;;21.58;12.20;;;-0.10;93.20;;;;;;5055345;28;20017;-70
2022/03/10 00:38:02;;;;;;;21.88;11.25;;;-0.10;93.10;;;;;;5055429;28;20360;-73
2022/03/10 00:40:28;;;;;;;22.65;12.13;;;-0.30;93.00;;;;;;5054254;28;20106;-72
2022/03/10 00:42:54;;;;;;;27.83;12.75;;;-0.30;94.80;;;;;;5055387;28;20482;-69
2022/03/10 00:45:20;;;;;;;25.25;12.88;;;-0.30;95.60;;;;;;5055616;28;20023;-73
2022/03/10 00:47:46;;;;;;;25.38;13.07;;;-0.30;96.90;;;;;;5054257;28;20470;-73
2022/03/10 00:50:12;;;;;;;23.80;13.65;;;-0.30;97.60;;;;;;5055481;28;20022;-70
2022/03/10 00:52:46;;;;;;;26.92;14.38;;;-0.30;98.70;;;;;;5055581;28;20071;-69
2022/03/10 00:55:15;;;;;;;27.02;12.18;;;-0.20;99.50;;;;;;5055258;28;20028;-73
2022/03/10 00:57:41;;;;;;;28.42;13.73;;;-0.30;99.70;;;;;;5055452;28;20021;-72
2022/03/10 01:00:07;;;;;;;22.33;11.23;;;-0.40;97.10;;;;;;5055294;28;20044;-72
2022/03/10 01:02:34;;;;;;;24.90;10.73;;;-0.50;93.80;;;;;;5053931;28;20492;-68
2022/03/10 01:05:00;;;;;;;21.95;9.43;;;-0.50;92.60;;;;;;5055147;28;20100;-73
2022/03/10 01:07:25;;;;;;;19.25;9.75;;;-0.60;90.70;;;;;;5055204;28;20060;-69
2022/03/10 01:09:51;;;;;;;14.23;7.68;;;-0.60;90.10;;;;;;5053886;28;20423;-73
2022/03/10 01:12:17;;;;;;;20.58;8.48;;;-0.60;89.60;;;;;;5055123;28;20139;-69
2022/03/10 01:14:43;;;;;;;16.63;9.35;;;-0.70;89.40;;;;;;5054997;28;20071;-69
2022/03/10 01:17:09;;;;;;;19.38;9.07;;;-0.70;88.80;;;;;;5055044;28;20029;-73
2022/03/10 01:19:34;;;;;;;17.02;9.25;;;-0.70;89.40;;;;;;5055055;28;20520;-69
2022/03/10 01:22:00;;;;;;;16.92;8.80;;;-0.70;87.90;;;;;;5054662;28;20029;-73
2022/03/10 01:24:25;;;;;;;12.70;8.30;;;-0.80;88.00;;;;;;5054966;28;20037;-73
2022/03/10 01:26:51;;;;;;;16.83;7.75;;;-0.80;87.40;;;;;;5054775;28;20090;-69
2022/03/10 01:29:17;;;;;;;9.27;7.00;;;-0.80;85.00;;;;;;5054258;28;20021;-69
2022/03/10 01:31:42;;;;;;;13.65;7.63;;;-0.80;83.70;;;;;;5053516;28;20017;-73
2022/03/10 01:34:08;;;;;;;14.20;8.57;;;-0.90;83.70;;;;;;5054700;28;20033;-73
2022/03/10 01:36:33;;;;;;;14.93;5.80;;;-0.90;82.20;;;;;;5053374;28;20515;-72
2022/03/10 01:39:03;;;;;;;10.38;6.70;;;-0.90;81.30;;;;;;5054661;28;20028;-68
2022/03/10 01:41:28;;;;;;;11.57;6.88;;;-0.90;81.40;;;;;;5054478;28;20374;-72
2022/03/10 01:43:58;;;;;;;13.93;7.15;;;-0.90;80.40;;;;;;5054516;28;20028;-70
2022/03/10 01:46:24;;;;;;;9.93;6.03;;;-1.00;80.60;;;;;;5053359;28;20029;-73
2022/03/10 01:48:50;;;;;;;12.23;8.00;;;-1.00;81.40;;;;;;5054439;28;20017;-72
2022/03/10 01:51:17;;;;;;;14.43;6.72;;;-1.00;82.00;;;;;;5054174;28;20061;-72
2022/03/10 01:53:43;;;;;;;14.00;7.63;;;-1.00;80.90;;;;;;5054314;28;20474;-69
2022/03/10 01:56:09;;;;;;;10.38;6.43;;;-1.00;81.80;;;;;;5054299;28;20031;-72
2022/03/10 01:58:36;;;;;;;9.43;6.20;;;-1.00;80.30;;;;;;5054286;28;20021;-69
2022/03/10 02:01:02;;;;;;;10.63;6.80;;;-1.10;78.60;;;;;;5054097;28;20474;-68
2022/03/10 02:03:28;;;;;;;10.82;5.65;;;-1.10;79.00;;;;;;5054230;28;20017;-69
2022/03/10 02:05:54;;;;;;;11.43;5.68;;;-1.10;79.50;;;;;;5052736;28;20025;-72
2022/03/10 02:11:06;;;;;;;16.58;7.53;;;-1.00;80.60;;;;;;5054135;28;20036;-72
2022/03/10 02:13:31;;;;;;;14.10;7.57;;;-1.00;82.00;;;;;;5053964;28;20036;-72
2022/03/10 02:18:41;;;;;;;12.20;7.50;;;-1.10;85.50;;;;;;5053917;28;20086;-68
2022/03/10 02:21:07;;;;;;;12.13;7.07;;;-1.00;86.00;;;;;;5053555;28;20041;-68
2022/03/10 02:23:32;;;;;;;19.50;8.80;;;-1.00;86.80;;;;;;5053823;28;20069;-72
2022/03/10 02:25:59;;;;;;;13.48;9.38;;;-1.10;88.10;;;;;;5053699;28;20378;-70
2022/03/10 02:28:26;;;;;;;13.77;8.25;;;-1.10;88.70;;;;;;5053750;28;20394;-68
2022/03/10 02:30:51;;;;;;;12.15;7.97;;;-1.00;89.90;;;;;;5053713;28;20029;-69
2022/03/10 02:33:17;;;;;;;16.42;9.32;;;-1.20;92.00;;;;;;5053636;28;20116;-68
2022/03/10 02:35:42;;;;;;;11.48;7.55;;;-1.20;94.10;;;;;;5053499;28;20049;-69
2022/03/10 02:38:08;;;;;;;15.73;7.95;;;-1.30;95.20;;;;;;5053548;28;20079;-72
2022/03/10 02:40:33;;;;;;;11.77;8.32;;;-1.30;94.70;;;;;;5052557;28;20082;-72
2022/03/10 02:42:59;;;;;;;13.50;8.00;;;-1.30;94.90;;;;;;5052209;28;20395;-72
2022/03/10 02:45:26;;;;;;;15.48;9.23;;;-1.20;94.30;;;;;;5053547;28;20024;-72
2022/03/10 02:47:51;;;;;;;15.15;8.00;;;-1.20;94.90;;;;;;5053391;28;20028;-72
2022/03/10 02:50:17;;;;;;;14.27;9.30;;;-1.30;96.20;;;;;;5053437;28;20386;-69
2022/03/10 02:52:44;;;;;;;12.07;8.88;;;-1.30;96.60;;;;;;5053338;28;20479;-72
2022/03/10 02:55:10;;;;;;;16.77;8.48;;;-1.20;96.90;;;;;;5053168;28;20039;-69
2022/03/10 02:57:37;;;;;;;16.10;7.97;;;-1.30;96.80;;;;;;5051964;28;20028;-68
2022/03/10 03:00:05;;;;;;;7.85;6.05;;;-1.20;97.30;;;;;;5053144;28;20087;-72
2022/03/10 03:02:31;;;;;;;13.40;7.32;;;-1.30;96.30;;;;;;5051991;28;20024;-72
2022/03/10 03:04:56;;;;;;;10.25;6.63;;;-1.30;97.40;;;;;;5051996;28;20026;-72
2022/03/10 03:07:23;;;;;;;10.88;7.03;;;-1.40;97.30;;;;;;5053171;28;20021;-72
2022/03/10 03:09:48;;;;;;;9.68;6.70;;;-1.30;97.20;;;;;;5053206;28;20033;-69
2022/03/10 03:12:14;;;;;;;10.00;6.88;;;-1.30;96.80;;;;;;5053253;28;20033;-68
2022/03/10 03:14:40;;;;;;;12.50;7.20;;;-1.30;96.70;;;;;;5051924;28;20025;-72
2022/03/10 03:17:05;;;;;;;10.50;6.10;;;-1.30;97.00;;;;;;5053119;28;20030;-72
2022/03/10 03:19:31;;;;;;;7.68;6.00;;;-1.40;93.30;;;;;;5053065;28;20485;-70
2022/03/10 03:21:57;;;;;;;10.98;6.85;;;-1.40;91.70;;;;;;5052971;28;20375;-68
2022/03/10 03:24:22;;;;;;;8.82;5.78;;;-1.50;92.10;;;;;;5052780;28;20056;-72
2022/03/10 03:26:49;;;;;;;9.73;6.10;;;-1.50;91.80;;;;;;5052977;28;20478;-72
2022/03/10 03:29:14;;;;;;;9.13;5.72;;;-1.50;92.70;;;;;;5052994;28;20032;-68
2022/03/10 03:31:40;;;;;;;9.68;6.25;;;-1.60;93.00;;;;;;5052890;28;20021;-72
2022/03/10 03:34:10;;;;;;;10.23;6.10;;;-1.60;91.60;;;;;;5053054;28;20037;-73
2022/03/10 03:36:39;;;;;;;10.15;6.00;;;-1.70;89.80;;;;;;5053176;28;20021;-68
2022/03/10 03:39:05;;;;;;;7.53;4.80;;;-1.80;89.70;;;;;;5052875;28;20017;-69
2022/03/10 03:41:31;;;;;;;7.00;5.28;;;-1.90;90.10;;;;;;5052718;28;20040;-68
2022/03/10 03:43:57;;;;;;;5.43;4.88;;;-1.90;89.60;;;;;;5052721;28;20021;-72
2022/03/10 03:46:23;;;;;;;5.00;4.60;;;-2.10;90.10;;;;;;5052939;28;20108;-69
2022/03/10 03:48:48;;;;;;;11.48;6.13;;;-2.10;92.00;;;;;;5051569;28;20052;-72
2022/03/10 03:51:14;;;;;;;8.52;5.47;;;-2.10;92.90;;;;;;5051704;28;20398;-72
2022/03/10 03:53:40;;;;;;;12.20;5.90;;;-2.20;93.10;;;;;;5056763;28;20013;-72
2022/03/10 03:56:05;;;;;;;5.95;3.95;;;-2.30;93.80;;;;;;5056391;28;20025;-68
2022/03/10 03:58:31;;;;;;;8.77;5.35;;;-2.30;93.90;;;;;;5056636;28;20043;-72
2022/03/10 04:00:56;;;;;;;6.85;4.80;;;-2.30;93.30;;;;;;5055174;28;20057;-72
2022/03/10 04:03:22;;;;;;;7.47;6.30;;;-2.40;93.50;;;;;;5056375;28;20052;-69
2022/03/10 04:05:48;;;;;;;7.45;5.70;;;-2.40;94.00;;;;;;5056340;28;20100;-72
2022/03/10 04:08:14;;;;;;;8.95;5.97;;;-2.40;94.80;;;;;;5056497;28;20021;-72
2022/03/10 04:10:39;;;;;;;8.23;5.13;;;-2.40;95.20;;;;;;5056367;28;20017;-72
2022/03/10 04:13:05;;;;;;;7.22;4.88;;;-2.50;96.30;;;;;;5054885;28;20063;-68
2022/03/10 04:15:35;;;;;;;11.40;5.85;;;-2.50;97.10;;;;;;5056368;28;20463;-69
2022/03/10 04:18:01;;;;;;;8.30;6.65;;;-2.50;97.90;;;;;;5054824;28;20398;-69
2022/03/10 04:20:27;;;;;;;7.43;5.53;;;-2.60;98.70;;;;;;5056011;28;20115;-72
2022/03/10 04:22:53;;;;;;;11.27;6.07;;;-2.60;99.50;;;;;;5055823;28;20081;-70
2022/03/10 04:25:19;;;;;;;8.32;5.80;;;-2.60;99.90;;;;;;5055873;28;20132;-69
2022/03/10 04:27:44;;;;;;;10.27;6.10;;;-2.60;99.90;;;;;;5054776;28;20036;-68
2022/03/10 04:30:11;;;;;;;7.85;5.70;;;-2.70;99.90;;;;;;5055992;28;20032;-69
2022/03/10 04:32:41;;;;;;;11.35;6.93;;;-2.70;99.90;;;;;;5056046;28;20079;-68
2022/03/10 04:35:08;;;;;;;13.55;6.78;;;-2.70;99.90;;;;;;5055999;28;20033;-72
2022/03/10 04:37:34;;;;;;;9.57;6.95;;;-2.80;99.90;;;;;;5055760;28;20027;-68
2022/03/10 04:39:59;;;;;;;13.00;7.68;;;-2.80;99.90;;;;;;5055809;28;20469;-72
2022/03/10 04:42:25;;;;;;;9.00;6.88;;;-2.80;99.90;;;;;;5055420;28;20031;-68
2022/03/10 04:44:50;;;;;;;12.05;6.85;;;-2.80;99.90;;;;;;5055606;28;20088;-72
2022/03/10 04:47:16;;;;;;;12.23;6.97;;;-2.80;99.90;;;;;;5055503;28;20086;-68
2022/03/10 04:49:41;;;;;;;7.82;6.82;;;-2.80;99.90;;;;;;5054221;28;20021;-72
2022/03/10 04:52:07;;;;;;;11.73;6.70;;;-2.90;99.90;;;;;;5055566;28;20021;-68
2022/03/10 04:54:33;;;;;;;12.50;7.70;;;-2.90;99.90;;;;;;5055464;28;20017;-72
2022/03/10 04:56:58;;;;;;;11.10;7.70;;;-3.00;99.90;;;;;;5055321;28;20022;-72
2022/03/10 04:59:25;;;;;;;10.65;6.97;;;-3.00;99.90;;;;;;5055413;28;20029;-72
2022/03/10 05:01:50;;;;;;;12.73;7.43;;;-3.10;99.90;;;;;;5055320;28;20035;-69
2022/03/10 05:04:16;;;;;;;9.65;7.45;;;-3.10;99.90;;;;;;5054390;28;20402;-70
2022/03/10 05:06:41;;;;;;;12.82;7.07;;;-3.10;99.90;;;;;;5055199;28;20029;-73
2022/03/10 05:09:07;;;;;;;10.02;6.97;;;-3.10;99.90;;;;;;5053986;28;20029;-69
2022/03/10 05:11:32;;;;;;;17.05;8.02;;;-3.20;99.90;;;;;;5055159;28;20098;-68
2022/03/10 05:13:58;;;;;;;17.50;8.75;;;-3.20;99.90;;;;;;5053681;28;20532;-70
2022/03/10 05:16:24;;;;;;;13.95;9.05;;;-3.20;99.90;;;;;;5053235;28;20078;-73
2022/03/10 05:18:49;;;;;;;11.35;7.72;;;-3.30;99.90;;;;;;5035281;28;20391;-69
2022/03/10 05:21:15;;;;;;;10.85;6.75;;;-3.30;99.90;;;;;;5049718;28;20499;-72
2022/03/10 05:23:40;;;;;;;15.15;7.88;;;-3.40;99.90;;;;;;5035126;28;20053;-72
2022/03/10 05:26:06;;;;;;;15.20;9.27;;;-3.40;99.90;;;;;;5035029;28;20021;-71
2022/03/10 05:28:31;;;;;;;16.13;7.53;;;-3.40;99.90;;;;;;5035049;28;20025;-71
2022/03/10 05:30:57;;;;;;;14.93;7.90;;;-3.40;99.90;;;;;;5034978;28;20021;-71
2022/03/10 05:33:22;;;;;;;14.43;8.82;;;-3.40;99.90;;;;;;5034732;28;20021;-72
2022/03/10 05:35:48;;;;;;;15.68;7.82;;;-3.50;99.90;;;;;;5049523;28;20079;-71
2022/03/10 05:38:14;;;;;;;13.00;8.00;;;-3.50;99.90;;;;;;5034625;28;20159;-71
2022/03/10 05:40:39;;;;;;;10.50;7.63;;;-3.40;99.90;;;;;;5034548;28;20041;-68
2022/03/10 05:43:05;;;;;;;12.93;7.95;;;-3.40;99.90;;;;;;5034539;28;20029;-72
2022/03/10 05:45:30;;;;;;;12.57;7.30;;;-3.40;97.50;;;;;;5034643;28;20020;-68
2022/03/10 05:47:56;;;;;;;14.93;6.45;;;-3.50;96.00;;;;;;5034398;28;20112;-71
2022/03/10 05:50:24;;;;;;;13.18;8.52;;;-3.50;95.10;;;;;;5034567;28;20017;-72
2022/03/10 05:52:50;;;;;;;12.52;7.68;;;-3.50;94.60;;;;;;5033956;28;20102;-72
2022/03/10 05:55:16;;;;;;;12.82;8.18;;;-3.40;94.90;;;;;;5034457;28;20061;-71
2022/03/10 05:57:42;;;;;;;14.13;9.00;;;-3.40;96.10;;;;;;5034236;28;20052;-68
2022/03/10 06:00:10;;;;;;;10.75;7.88;;;-3.40;96.40;;;;;;5034291;28;20076;-71
2022/03/10 06:02:36;;;;;;;13.75;7.90;;;-3.40;97.10;;;;;;5049690;28;20480;-71
2022/03/10 06:05:02;;;;;;;16.00;9.15;;;-3.40;98.70;;;;;;5034070;28;20018;-72
2022/03/10 06:07:28;;;;;;;14.45;8.38;;;-3.40;99.60;;;;;;5048954;28;20128;-72
2022/03/10 06:09:55;;;;;;;14.27;9.02;;;-3.50;99.90;;;;;;5049167;28;20475;-70
2022/03/10 06:12:26;;;;;;;19.73;9.20;;;-3.50;99.90;;;;;;5033994;28;20026;-67
2022/03/10 06:15:00;;;;;;;14.95;9.43;;;-3.40;99.90;;;;;;5033983;28;20025;-68
2022/03/10 06:17:27;;;;;;;17.25;8.88;;;-3.40;99.90;;;;;;5033835;28;20028;-69
2022/03/10 06:19:52;;;;;;;14.82;8.55;;;-3.40;99.90;;;;;;5033731;28;20033;-72
2022/03/10 06:22:24;;;;;;;19.10;10.05;;;-3.30;99.90;;;;;;5033184;28;20060;-68
2022/03/10 06:24:50;;;;;;;20.30;9.45;;;-3.30;99.50;;;;;;5033745;28;20503;-75
2022/03/10 06:27:17;;;;;;;16.30;8.60;;;-3.40;95.30;;;;;;5033735;28;20415;-72
2022/03/10 06:29:43;;;;;;;11.82;8.55;;;-3.30;93.00;;;;;;5033595;28;20025;-68
2022/03/10 06:32:12;;;;;;;14.57;7.90;;;-3.20;87.50;;;;;;5033594;28;20026;-68
2022/03/10 06:34:38;;;;;;;12.23;7.13;;;-3.10;82.50;;;;;;5033516;28;20466;-68
2022/03/10 06:37:05;;;;;;;11.60;6.40;;;-2.90;80.80;;;;;;5045442;28;20029;-68
2022/03/10 06:39:30;;;;;;;5.13;4.65;;;-2.90;79.10;;;;;;5053167;28;20019;-68
2022/03/10 06:41:56;;;;;;;13.98;7.05;;;-2.90;75.20;;;;;;5053144;28;20449;-67
2022/03/10 06:44:22;;;;;;;9.00;6.35;;;-2.80;75.50;;;;;;5052868;28;20027;-68
2022/03/10 06:46:47;;;;;;;12.13;7.50;;;-2.80;73.90;;;;;;5053199;28;20432;-67
2022/03/10 06:49:13;;;;;;;12.35;7.35;;;-2.70;73.50;;;;;;5053144;28;20524;-73
2022/03/10 06:51:39;;;;;;;9.20;6.00;;;-2.80;73.10;;;;;;5051049;28;20021;-67
2022/03/10 06:54:04;;;;;;;12.48;6.20;;;-2.70;71.80;;;;;;5053103;28;20025;-68
2022/03/10 06:56:30;;;;;;;9.55;6.13;;;-2.60;71.40;;;;;;5052555;28;20074;-67
2022/03/10 06:58:56;;;;;;;7.95;5.15;;;-2.40;70.20;;;;;;5053139;28;20154;-72
2022/03/10 07:01:21;;;;;;;8.77;5.05;;;-2.40;68.40;;;;;;5053232;28;20486;-73
2022/03/10 07:03:47;;;;;;;10.43;6.32;;;-2.40;66.50;;;;;;5053015;28;20017;-68
2022/03/10 07:06:13;;;;;;;7.68;5.15;;;-2.40;66.10;;;;;;5052509;28;20029;-73
2022/03/10 07:08:38;;;;;;;8.35;5.10;;;-2.30;65.10;;;;;;5053125;28;20044;-73
2022/03/10 07:11:04;;;;;;;9.02;5.47;;;-2.30;63.70;;;;;;5052463;28;20028;-72
2022/03/10 07:13:29;;;;;;;8.23;4.75;;;-2.30;62.90;;;;;;5051823;28;20029;-75
2022/03/10 07:15:55;;;;;;;6.80;5.00;;;-2.30;63.10;;;;;;5052716;28;20428;-73
2022/03/10 07:18:21;;;;;;;12.35;5.70;;;-2.30;63.20;;;;;;5050650;28;20048;-69
2022/03/10 07:20:47;;;;;;;7.28;4.97;;;-2.20;63.00;;;;;;5050330;28;20029;-68
2022/03/10 07:23:12;;;;;;;7.88;4.82;;;-2.30;61.50;;;;;;5051957;28;20036;-67
2022/03/10 07:25:38;;;;;;;9.70;5.25;;;-2.20;61.60;;;;;;5051931;28;20078;-68
2022/03/10 07:28:04;;;;;;;8.77;4.63;;;-2.00;61.40;;;;;;5055398;28;20021;-68
2022/03/10 07:30:30;;;;;;;6.28;4.35;;;-1.90;60.40;;;;;;5055362;28;20075;-69
2022/03/10 07:32:55;;;;;;;7.63;5.20;;;-1.80;59.70;;;;;;5055951;28;20429;-68
2022/03/10 07:35:21;;;;;;;7.45;4.78;;;-1.80;59.30;;;;;;5055432;28;20032;-74
2022/03/10 07:37:48;;;;;;;8.48;4.35;;;-1.80;59.70;;;;;;5056525;28;20029;-69
2022/03/10 07:40:14;;;;;;;6.78;4.90;;;-1.70;59.50;;;;;;5056315;28;20056;-74
2022/03/10 07:42:39;;;;;;;6.47;3.80;;;-1.90;57.50;;;;;;5055244;28;20478;-74
2022/03/10 07:45:05;;;;;;;5.82;4.57;;;-2.00;56.40;;;;;;5053689;28;20074;-71
2022/03/10 07:47:31;;;;;;;6.28;4.20;;;-1.90;56.50;;;;;;5055938;28;20024;-70
2022/03/10 07:49:57;;;;;;;8.02;5.07;;;-1.80;56.10;;;;;;5056046;28;20383;-74
2022/03/10 07:52:23;;;;;;;5.93;4.90;;;-1.70;56.50;;;;;;5054324;28;20071;-70
2022/03/10 07:54:48;;;;;;;7.55;4.65;;;-1.70;56.80;;;;;;5055586;28;20411;-70
2022/03/10 07:57:14;;;;;;;5.85;3.88;;;-1.80;56.40;;;;;;5054797;28;20021;-69
2022/03/10 07:59:40;;;;;;;7.13;4.03;;;-1.70;56.40;;;;;;5053826;28;20021;-70
2022/03/10 08:02:05;;;;;;;6.25;3.65;;;-1.70;56.10;;;;;;5055858;28;20147;-69
2022/03/10 08:04:31;;;;;;;5.50;4.43;;;-1.70;56.50;;;;;;5053989;28;20096;-71
2022/03/10 08:06:56;;;;;;;5.85;4.35;;;-1.70;56.00;;;;;;5053985;28;20517;-70
2022/03/10 08:09:22;;;;;;;5.55;4.05;;;-1.70;55.50;;;;;;5054750;28;20021;-70
2022/03/10 08:11:47;;;;;;;6.50;4.72;;;-1.60;56.90;;;;;;5052106;28;20044;-70
2022/03/10 08:14:13;;;;;;;5.57;4.40;;;-1.60;56.10;;;;;;5053705;28;20024;-71
2022/03/10 08:16:40;;;;;;;4.40;3.60;;;-1.50;56.20;;;;;;5054525;28;20382;-70
2022/03/10 08:19:09;;;;;;;5.63;4.55;;;-1.30;56.30;;;;;;5055767;28;20021;-70
2022/03/10 08:21:34;;;;;;;4.95;3.58;;;-1.40;55.50;;;;;;5055403;28;20084;-69
2022/03/10 08:24:00;;;;;;;7.50;5.40;;;-1.50;56.30;;;;;;5055556;28;20406;-70
2022/03/10 08:26:26;;;;;;;4.80;4.18;;;-1.30;56.60;;;;;;5055715;28;20029;-69
2022/03/10 08:28:53;;;;;;;6.00;4.32;;;-1.40;55.70;;;;;;5055778;28;20097;-71
2022/03/10 08:31:19;;;;;;;6.25;3.90;;;-1.60;55.50;;;;;;5055592;28;20023;-70
2022/03/10 08:33:45;;;;;;;6.00;4.80;;;-1.50;56.20;;;;;;5053975;28;20021;-70
2022/03/10 08:36:11;;;;;;;6.07;4.30;;;-1.50;56.00;;;;;;5055878;28;20036;-74
2022/03/10 08:38:37;;;;;;;9.05;4.70;;;-1.40;55.90;;;;;;5054240;28;20025;-74
2022/03/10 08:41:03;;;;;;;8.68;4.47;;;-1.30;56.40;;;;;;5055216;28;20410;-74
2022/03/10 08:43:30;;;;;;;6.95;4.90;;;-1.20;56.00;;;;;;5055056;28;20100;-74
2022/03/10 08:45:56;;;;;;;5.72;3.90;;;-1.00;56.60;;;;;;5053980;28;20021;-74
2022/03/10 08:48:22;;;;;;;5.47;4.13;;;-0.90;55.20;;;;;;5055205;28;20064;-74
2022/03/10 08:50:47;;;;;;;8.32;4.45;;;-0.90;54.70;;;;;;5055182;28;20063;-75
2022/03/10 08:53:13;;;;;;;4.90;3.40;;;-1.00;54.00;;;;;;5054448;28;20437;-75
2022/03/10 08:55:39;;;;;;;6.40;4.10;;;-1.00;54.00;;;;;;5053860;28;20476;-74
2022/03/10 08:58:04;;;;;;;6.75;3.85;;;-0.90;54.20;;;;;;5053749;28;20108;-74
2022/03/10 09:00:30;;;;;;;7.90;5.03;;;-0.90;53.90;;;;;;5055086;28;20079;-74
2022/03/10 09:02:57;;;;;;;6.38;4.47;;;-0.90;54.00;;;;;;5054725;28;20029;-74
2022/03/10 09:05:23;;;;;;;8.40;4.32;;;-1.10;52.90;;;;;;5053753;28;20427;-74
2022/03/10 09:07:48;;;;;;;8.15;5.20;;;-1.00;53.60;;;;;;5054534;28;20115;-74
2022/03/10 09:10:15;;;;;;;5.18;3.90;;;-1.00;53.10;;;;;;5052868;28;20105;-74
2022/03/10 09:12:41;;;;;;;5.60;3.88;;;-1.00;53.20;;;;;;5052520;28;20021;-74
2022/03/10 09:15:08;;;;;;;5.20;3.80;;;-0.90;53.80;;;;;;5052729;28;20106;-74
2022/03/10 09:17:34;;;;;;;8.75;4.72;;;-0.80;53.80;;;;;;5051327;28;20056;-74
2022/03/10 09:19:59;;;;;;;5.28;4.60;;;-0.70;53.30;;;;;;5052606;28;20060;-74
2022/03/10 09:22:25;;;;;;;7.03;3.75;;;-0.70;53.70;;;;;;5052234;28;20602;-74
2022/03/10 09:24:52;;;;;;;5.20;4.22;;;-0.60;53.70;;;;;;5054141;28;20017;-74
2022/03/10 09:27:18;;;;;;;7.18;4.40;;;-0.80;52.50;;;;;;5054865;28;20043;-75
2022/03/10 09:29:43;;;;;;;7.43;4.82;;;-0.70;53.60;;;;;;5053520;28;20482;-75
2022/03/10 09:32:09;;;;;;;10.02;4.63;;;-0.40;53.10;;;;;;5054404;28;20100;-75
2022/03/10 09:34:35;;;;;;;7.70;4.93;;;-0.40;53.10;;;;;;5052858;28;20023;-74
2022/03/10 09:37:01;;;;;;;5.45;4.35;;;-0.50;52.90;;;;;;5054303;28;20068;-74
2022/03/10 09:39:26;;;;;;;6.35;4.15;;;-0.80;53.30;;;;;;5053006;28;20079;-75
2022/03/10 09:41:56;;;;;;;7.15;4.70;;;-1.00;53.20;;;;;;5054064;28;20517;-75
2022/03/10 09:44:22;;;;;;;6.32;4.22;;;-1.10;53.50;;;;;;5054056;28;20072;-74
2022/03/10 09:46:50;;;;;;;7.32;5.30;;;-1.10;54.20;;;;;;5054075;28;20029;-75
2022/03/10 09:49:20;;;;;;;12.27;5.18;;;-0.90;54.30;;;;;;5052536;28;20367;-75
2022/03/10 09:51:48;;;;;;;8.10;5.43;;;-1.20;53.40;;;;;;5053946;28;20067;-74
2022/03/10 09:54:14;;;;;;;8.52;5.50;;;-1.10;54.00;;;;;;5053829;28;20024;-75
2022/03/10 09:56:43;;;;;;;6.30;4.70;;;-0.80;54.20;;;;;;5051390;28;20029;-74
2022/03/10 09:59:09;;;;;;;6.75;4.53;;;-0.80;54.20;;;;;;5053101;28;20076;-74
2022/03/10 10:01:35;;;;;;;6.10;4.13;;;-0.50;53.50;;;;;;5052826;28;20032;-74
2022/03/10 10:04:01;;;;;;;6.13;4.25;;;-0.20;52.90;;;;;;5052602;28;20021;-75
2022/03/10 10:06:26;;;;;;;7.65;4.50;;;-0.20;51.90;;;;;;5035587;28;20027;-75
2022/03/10 10:08:56;;;;;;;5.95;3.67;;;-0.20;51.40;;;;;;5052941;28;20024;-75
2022/03/10 10:11:34;;;;;;;6.13;4.45;;;-0.10;50.50;;;;;;5053043;28;20102;-75
2022/03/10 10:14:00;;;;;;;9.55;4.03;;;-0.10;49.40;;;;;;5053416;28;20060;-75
2022/03/10 10:16:26;;;;;;;5.13;4.47;;;-0.20;50.00;;;;;;5052366;28;20029;-74
2022/03/10 10:18:56;;;;;;;4.40;3.80;;;-0.10;50.80;;;;;;5053564;28;20032;-74
2022/03/10 10:21:23;;;;;;;5.60;3.78;;;-0.10;52.20;;;;;;5052095;28;20037;-74
2022/03/10 10:23:51;;;;;;;4.70;3.92;;;-0.10;51.90;;;;;;5053168;28;20410;-74
2022/03/10 10:26:18;;;;;;;6.72;4.05;;;-0.60;51.70;;;;;;5053371;28;20041;-74
2022/03/10 10:28:46;;;;;;;6.53;4.63;;;-0.50;51.80;;;;;;5053399;28;20021;-75
2022/03/10 10:31:17;;;;;;;9.73;4.35;;;-0.30;51.40;;;;;;5053345;28;20047;-74
2022/03/10 10:33:57;;;;;;;5.60;4.88;;;-0.10;51.60;;;;;;5051704;28;20031;-74
2022/03/10 10:36:24;;;;;;;5.25;4.03;;;0.00;50.30;;;;;;5053276;28;20071;-74
2022/03/10 10:38:55;;;;;;;8.40;5.05;;;0.10;50.50;;;;;;5053224;28;20083;-74
2022/03/10 10:41:27;;;;;;;6.80;4.95;;;0.30;51.10;;;;;;5053088;28;20552;-74
2022/03/10 10:43:57;;;;;;;6.53;4.87;;;0.30;50.10;;;;;;5052580;28;20017;-74
2022/03/10 10:46:30;;;;;;;6.53;4.75;;;0.40;49.50;;;;;;5053141;28;20021;-74
2022/03/10 10:48:58;;;;;;;5.55;4.10;;;0.30;49.60;;;;;;5053216;28;20387;-74
2022/03/10 10:51:46;;;;;;;5.22;3.70;;;0.40;49.50;;;;;;5053031;28;20029;-74
2022/03/10 10:54:23;;;;;;;5.43;4.00;;;0.50;49.40;;;;;;5052912;28;20104;-74
2022/03/10 10:57:03;;;;;;;5.70;4.22;;;0.50;48.50;;;;;;5053110;28;20099;-74
2022/03/10 10:59:34;;;;;;;5.93;4.20;;;0.50;48.30;;;;;;5051974;28;20528;-74
2022/03/10 11:02:12;;;;;;;6.55;4.47;;;0.40;48.90;;;;;;5052130;28;20051;-75
2022/03/10 11:04:42;;;;;;;5.05;3.53;;;0.30;49.30;;;;;;5052709;28;20573;-75
2022/03/10 11:07:11;;;;;;;7.45;4.78;;;0.30;48.90;;;;;;5051999;28;20100;-74
2022/03/10 11:09:39;;;;;;;6.47;4.53;;;0.20;48.40;;;;;;5052704;28;20035;-74
2022/03/10 11:12:05;;;;;;;5.97;4.20;;;0.10;48.70;;;;;;5052465;28;20025;-73
2022/03/10 11:14:31;;;;;;;6.32;4.45;;;0.10;48.40;;;;;;5051564;28;20017;-70
2022/03/10 11:16:58;;;;;;;5.50;4.70;;;0.10;48.50;;;;;;5052934;28;20100;-71
2022/03/10 11:19:25;;;;;;;6.40;4.28;;;0.20;49.70;;;;;;5053174;28;20025;-70
2022/03/10 11:22:19;;;;;;;5.95;4.70;;;0.60;49.70;;;;;;5052941;28;20060;-70
2022/03/10 11:24:55;;;;;;;6.72;4.15;;;0.60;49.40;;;;;;5051999;28;20041;-74
2022/03/10 11:27:24;;;;;;;8.02;4.47;;;0.60;48.60;;;;;;5053094;28;20029;-74
2022/03/10 11:29:54;;;;;;;5.78;3.85;;;0.50;47.70;;;;;;5053073;28;20021;-71
2022/03/10 11:32:28;;;;;;;6.53;4.22;;;0.50;47.90;;;;;;5053146;28;20063;-70
2022/03/10 11:34:56;;;;;;;6.32;4.13;;;0.50;48.30;;;;;;5052961;28;20013;-74
2022/03/10 11:37:37;;;;;;;8.05;3.85;;;0.50;48.00;;;;;;5052699;28;20017;-74
2022/03/10 11:40:04;;;;;;;6.53;3.65;;;0.50;48.10;;;;;;5052489;28;20116;-74
2022/03/10 11:42:32;;;;;;;6.22;3.95;;;0.50;47.80;;;;;;5052766;28;20126;-74
2022/03/10 11:45:18;;;;;;;4.40;3.17;;;0.50;46.20;;;;;;5049859;28;20021;-74
2022/03/10 11:47:44;;;;;;;5.45;3.85;;;0.40;44.80;;;;;;5052353;28;20044;-74
2022/03/10 11:50:22;;;;;;;7.57;4.50;;;0.40;45.20;;;;;;5052505;28;20025;-74
2022/03/10 11:53:05;;;;;;;8.07;4.18;;;0.40;45.90;;;;;;5052462;28;20078;-73
2022/03/10 11:55:46;;;;;;;6.07;4.18;;;0.50;45.70;;;;;;5052746;28;20025;-73
2022/03/10 11:58:13;;;;;;;5.18;3.88;;;0.70;46.70;;;;;;5052296;28;20461;-74
2022/03/10 12:00:44;;;;;;;5.63;4.38;;;0.80;46.00;;;;;;5051639;28;20033;-75
2022/03/10 12:03:33;;;;;;;4.40;3.35;;;0.70;44.90;;;;;;5052027;28;20049;-70
2022/03/10 12:06:07;;;;;;;4.03;3.45;;;0.70;44.90;;;;;;5052267;28;20013;-74
2022/03/10 12:08:36;;;;;;;5.70;3.72;;;0.70;45.20;;;;;;5052103;28;20432;-75
2022/03/10 12:11:03;;;;;;;6.03;4.07;;;0.70;45.90;;;;;;5052161;28;20052;-75
2022/03/10 12:13:41;;;;;;;5.30;3.88;;;0.70;44.40;;;;;;5054485;28;20063;-71
2022/03/10 12:16:08;;;;;;;6.35;3.67;;;0.60;44.50;;;;;;5055933;28;20021;-70
2022/03/10 12:18:43;;;;;;;6.40;3.97;;;0.60;44.60;;;;;;5056007;28;20021;-71
2022/03/10 12:21:24;;;;;;;5.32;3.28;;;0.70;44.00;;;;;;5056021;28;20111;-70
2022/03/10 12:23:53;;;;;;;7.35;2.90;;;0.80;44.80;;;;;;5054784;28;20053;-70
2022/03/10 12:26:33;;;;;;;5.32;3.40;;;0.90;42.60;;;;;;5056202;28;20390;-74
2022/03/10 12:29:05;;;;;;;3.70;3.28;;;0.80;43.10;;;;;;5054783;28;20051;-74
2022/03/10 12:31:35;;;;;;;3.40;3.10;;;1.00;43.40;;;;;;5054769;28;20497;-73
2022/03/10 12:34:07;;;;;;;5.53;3.58;;;0.80;42.30;;;;;;5055861;28;20025;-74
2022/03/10 12:36:41;;;;;;;6.25;4.75;;;0.80;41.80;;;;;;5054475;28;20074;-70
2022/03/10 12:39:12;;;;;;;5.90;3.72;;;0.70;42.60;;;;;;5054289;28;20075;-74
2022/03/10 12:41:45;;;;;;;3.78;3.28;;;0.80;42.20;;;;;;5043938;28;20520;-75
2022/03/10 12:44:12;;;;;;;4.45;3.65;;;0.70;42.60;;;;;;5053063;28;20537;-75
2022/03/10 12:46:43;;;;;;;5.90;3.80;;;0.60;42.40;;;;;;5054346;28;20490;-75
2022/03/10 12:49:31;;;;;;;5.60;3.85;;;0.80;44.00;;;;;;5054626;28;20044;-75